sensor_id;sensor_type;location;lat;lon;timestamp;P1;durP1;ratioP1;P2;durP2;ratioP2
21213;SDS011;10764;50.850;2.904;2023-03-05T00:00:49;1.63;;;0.50;;
21213;SDS011;10764;50.850;2.904;2023-03-05T00:03:15;1.30;;;0.47;;
21213;SDS011;10764;50.850;2.904;2023-03-05T00:05:42;0.90;;;0.35;;
21213;SDS011;10764;50.850;2.904;2023-03-05T00:08:09;1.45;;;0.40;;
21213;SDS011;10764;50.850;2.904;2023-03-05T00:10:36;0.98;;;0.30;;
21213;SDS011;10764;50.850;2.904;2023-03-05T00:13:02;0.80;;;0.40;;
21213;SDS011;10764;50.850;2.904;2023-03-05T00:15:29;0.75;;;0.32;;
21213;SDS011;10764;50.850;2.904;2023-03-05T00:17:56;0.80;;;0.30;;
21213;SDS011;10764;50.850;2.904;2023-03-05T00:20:23;1.40;;;0.40;;
21213;SDS011;10764;50.850;2.904;2023-03-05T00:22:50;1.20;;;0.40;;
21213;SDS011;10764;50.850;2.904;2023-03-05T00:25:17;1.40;;;0.50;;
21213;SDS011;10764;50.850;2.904;2023-03-05T00:27:43;0.98;;;0.32;;
21213;SDS011;10764;50.850;2.904;2023-03-05T00:30:10;1.10;;;0.32;;
21213;SDS011;10764;50.850;2.904;2023-03-05T00:32:37;1.10;;;0.50;;
21213;SDS011;10764;50.850;2.904;2023-03-05T00:35:05;0.98;;;0.32;;
21213;SDS011;10764;50.850;2.904;2023-03-05T00:37:32;0.90;;;0.40;;
21213;SDS011;10764;50.850;2.904;2023-03-05T00:39:59;0.77;;;0.30;;
21213;SDS011;10764;50.850;2.904;2023-03-05T00:42:26;1.23;;;0.40;;
21213;SDS011;10764;50.850;2.904;2023-03-05T00:44:54;0.43;;;0.28;;
21213;SDS011;10764;50.850;2.904;2023-03-05T00:47:21;1.75;;;0.50;;
21213;SDS011;10764;50.850;2.904;2023-03-05T00:49:47;1.02;;;0.40;;
21213;SDS011;10764;50.850;2.904;2023-03-05T00:52:14;1.52;;;0.40;;
21213;SDS011;10764;50.850;2.904;2023-03-05T00:54:41;0.80;;;0.40;;
21213;SDS011;10764;50.850;2.904;2023-03-05T00:57:08;0.90;;;0.38;;
21213;SDS011;10764;50.850;2.904;2023-03-05T00:59:35;0.50;;;0.30;;
21213;SDS011;10764;50.850;2.904;2023-03-05T01:02:02;0.60;;;0.30;;
21213;SDS011;10764;50.850;2.904;2023-03-05T01:04:29;2.77;;;0.40;;
21213;SDS011;10764;50.850;2.904;2023-03-05T01:06:56;1.10;;;0.45;;
21213;SDS011;10764;50.850;2.904;2023-03-05T01:09:23;2.00;;;0.68;;
21213;SDS011;10764;50.850;2.904;2023-03-05T01:11:50;0.90;;;0.40;;
21213;SDS011;10764;50.850;2.904;2023-03-05T01:14:18;0.63;;;0.30;;
21213;SDS011;10764;50.850;2.904;2023-03-05T01:16:46;0.50;;;0.30;;
21213;SDS011;10764;50.850;2.904;2023-03-05T01:19:13;1.10;;;0.40;;
21213;SDS011;10764;50.850;2.904;2023-03-05T01:21:41;0.60;;;0.30;;
21213;SDS011;10764;50.850;2.904;2023-03-05T01:24:08;0.80;;;0.40;;
21213;SDS011;10764;50.850;2.904;2023-03-05T01:26:35;0.57;;;0.30;;
21213;SDS011;10764;50.850;2.904;2023-03-05T01:29:02;1.20;;;0.40;;
21213;SDS011;10764;50.850;2.904;2023-03-05T01:31:29;0.90;;;0.40;;
21213;SDS011;10764;50.850;2.904;2023-03-05T01:33:56;0.80;;;0.40;;
21213;SDS011;10764;50.850;2.904;2023-03-05T01:36:26;1.40;;;0.40;;
21213;SDS011;10764;50.850;2.904;2023-03-05T01:38:53;0.73;;;0.40;;
21213;SDS011;10764;50.850;2.904;2023-03-05T01:41:20;0.57;;;0.30;;
21213;SDS011;10764;50.850;2.904;2023-03-05T01:43:47;1.02;;;0.40;;
21213;SDS011;10764;50.850;2.904;2023-03-05T01:48:51;1.02;;;0.40;;
21213;SDS011;10764;50.850;2.904;2023-03-05T01:51:29;0.68;;;0.28;;
21213;SDS011;10764;50.850;2.904;2023-03-05T01:54:00;1.35;;;0.38;;
21213;SDS011;10764;50.850;2.904;2023-03-05T01:56:28;0.90;;;0.40;;
21213;SDS011;10764;50.850;2.904;2023-03-05T01:58:56;0.65;;;0.30;;
21213;SDS011;10764;50.850;2.904;2023-03-05T02:01:32;1.00;;;0.40;;
21213;SDS011;10764;50.850;2.904;2023-03-05T02:04:05;0.90;;;0.40;;
21213;SDS011;10764;50.850;2.904;2023-03-05T02:06:34;1.20;;;0.30;;
21213;SDS011;10764;50.850;2.904;2023-03-05T02:09:02;0.95;;;0.30;;
21213;SDS011;10764;50.850;2.904;2023-03-05T02:11:29;1.38;;;0.30;;
21213;SDS011;10764;50.850;2.904;2023-03-05T02:13:56;0.70;;;0.20;;
21213;SDS011;10764;50.850;2.904;2023-03-05T02:16:23;1.30;;;0.40;;
21213;SDS011;10764;50.850;2.904;2023-03-05T02:18:50;1.27;;;0.45;;
21213;SDS011;10764;50.850;2.904;2023-03-05T02:21:27;0.65;;;0.38;;
21213;SDS011;10764;50.850;2.904;2023-03-05T02:24:02;0.77;;;0.40;;
21213;SDS011;10764;50.850;2.904;2023-03-05T02:26:29;0.93;;;0.30;;
21213;SDS011;10764;50.850;2.904;2023-03-05T02:28:57;1.47;;;0.40;;
21213;SDS011;10764;50.850;2.904;2023-03-05T02:31:26;1.52;;;0.40;;
21213;SDS011;10764;50.850;2.904;2023-03-05T02:33:53;0.70;;;0.30;;
21213;SDS011;10764;50.850;2.904;2023-03-05T02:36:22;0.95;;;0.30;;
21213;SDS011;10764;50.850;2.904;2023-03-05T02:38:49;1.30;;;0.30;;
21213;SDS011;10764;50.850;2.904;2023-03-05T02:41:18;0.80;;;0.30;;
21213;SDS011;10764;50.850;2.904;2023-03-05T02:43:46;0.85;;;0.40;;
21213;SDS011;10764;50.850;2.904;2023-03-05T02:46:12;1.00;;;0.40;;
21213;SDS011;10764;50.850;2.904;2023-03-05T02:48:39;1.08;;;0.47;;
21213;SDS011;10764;50.850;2.904;2023-03-05T02:51:09;1.13;;;0.40;;
21213;SDS011;10764;50.850;2.904;2023-03-05T02:53:37;0.65;;;0.25;;
21213;SDS011;10764;50.850;2.904;2023-03-05T02:56:03;0.43;;;0.20;;
21213;SDS011;10764;50.850;2.904;2023-03-05T02:58:33;0.80;;;0.30;;
21213;SDS011;10764;50.850;2.904;2023-03-05T03:01:00;0.70;;;0.40;;
21213;SDS011;10764;50.850;2.904;2023-03-05T03:03:27;1.07;;;0.40;;
21213;SDS011;10764;50.850;2.904;2023-03-05T03:05:54;0.80;;;0.30;;
21213;SDS011;10764;50.850;2.904;2023-03-05T03:08:20;1.33;;;0.22;;
21213;SDS011;10764;50.850;2.904;2023-03-05T03:10:47;1.10;;;0.40;;
21213;SDS011;10764;50.850;2.904;2023-03-05T03:13:14;0.75;;;0.30;;
21213;SDS011;10764;50.850;2.904;2023-03-05T03:15:41;0.95;;;0.45;;
21213;SDS011;10764;50.850;2.904;2023-03-05T03:18:08;0.60;;;0.30;;
21213;SDS011;10764;50.850;2.904;2023-03-05T03:20:36;0.80;;;0.30;;
21213;SDS011;10764;50.850;2.904;2023-03-05T03:23:04;1.00;;;0.30;;
21213;SDS011;10764;50.850;2.904;2023-03-05T03:25:32;0.50;;;0.30;;
21213;SDS011;10764;50.850;2.904;2023-03-05T03:27:59;0.43;;;0.20;;
21213;SDS011;10764;50.850;2.904;2023-03-05T03:30:25;0.63;;;0.30;;
21213;SDS011;10764;50.850;2.904;2023-03-05T03:32:52;0.68;;;0.30;;
21213;SDS011;10764;50.850;2.904;2023-03-05T03:35:19;0.70;;;0.20;;
21213;SDS011;10764;50.850;2.904;2023-03-05T03:37:46;0.67;;;0.20;;
21213;SDS011;10764;50.850;2.904;2023-03-05T03:40:13;0.80;;;0.30;;
21213;SDS011;10764;50.850;2.904;2023-03-05T03:42:40;0.37;;;0.27;;
21213;SDS011;10764;50.850;2.904;2023-03-05T03:45:07;1.10;;;0.35;;
21213;SDS011;10764;50.850;2.904;2023-03-05T03:47:34;0.85;;;0.30;;
21213;SDS011;10764;50.850;2.904;2023-03-05T03:50:01;0.60;;;0.20;;
21213;SDS011;10764;50.850;2.904;2023-03-05T03:52:28;0.65;;;0.40;;
21213;SDS011;10764;50.850;2.904;2023-03-05T03:54:55;0.80;;;0.30;;
21213;SDS011;10764;50.850;2.904;2023-03-05T03:57:27;0.80;;;0.30;;
21213;SDS011;10764;50.850;2.904;2023-03-05T03:59:55;0.85;;;0.30;;
21213;SDS011;10764;50.850;2.904;2023-03-05T04:02:22;0.68;;;0.20;;
21213;SDS011;10764;50.850;2.904;2023-03-05T04:04:49;0.90;;;0.40;;
21213;SDS011;10764;50.850;2.904;2023-03-05T04:07:16;0.57;;;0.20;;
21213;SDS011;10764;50.850;2.904;2023-03-05T04:09:44;1.15;;;0.30;;
21213;SDS011;10764;50.850;2.904;2023-03-05T04:12:11;0.80;;;0.20;;
21213;SDS011;10764;50.850;2.904;2023-03-05T04:14:43;0.88;;;0.30;;
21213;SDS011;10764;50.850;2.904;2023-03-05T04:17:11;0.85;;;0.30;;
21213;SDS011;10764;50.850;2.904;2023-03-05T04:19:39;0.65;;;0.30;;
21213;SDS011;10764;50.850;2.904;2023-03-05T04:22:10;1.00;;;0.30;;
21213;SDS011;10764;50.850;2.904;2023-03-05T04:24:38;0.60;;;0.30;;
21213;SDS011;10764;50.850;2.904;2023-03-05T04:27:05;1.13;;;0.38;;
21213;SDS011;10764;50.850;2.904;2023-03-05T04:29:32;1.25;;;0.40;;
21213;SDS011;10764;50.850;2.904;2023-03-05T04:31:59;0.82;;;0.30;;
21213;SDS011;10764;50.850;2.904;2023-03-05T04:34:26;1.25;;;0.30;;
21213;SDS011;10764;50.850;2.904;2023-03-05T04:36:53;0.75;;;0.30;;
21213;SDS011;10764;50.850;2.904;2023-03-05T04:39:20;0.75;;;0.30;;
21213;SDS011;10764;50.850;2.904;2023-03-05T04:41:47;0.60;;;0.30;;
21213;SDS011;10764;50.850;2.904;2023-03-05T04:44:14;0.90;;;0.30;;
21213;SDS011;10764;50.850;2.904;2023-03-05T04:46:42;0.82;;;0.30;;
21213;SDS011;10764;50.850;2.904;2023-03-05T04:49:09;0.57;;;0.30;;
21213;SDS011;10764;50.850;2.904;2023-03-05T04:51:36;0.60;;;0.30;;
21213;SDS011;10764;50.850;2.904;2023-03-05T04:54:03;0.75;;;0.50;;
21213;SDS011;10764;50.850;2.904;2023-03-05T04:56:30;0.70;;;0.40;;
21213;SDS011;10764;50.850;2.904;2023-03-05T04:58:57;0.52;;;0.30;;
21213;SDS011;10764;50.850;2.904;2023-03-05T05:01:24;0.75;;;0.30;;
21213;SDS011;10764;50.850;2.904;2023-03-05T05:03:51;1.40;;;0.30;;
21213;SDS011;10764;50.850;2.904;2023-03-05T05:06:18;0.47;;;0.28;;
21213;SDS011;10764;50.850;2.904;2023-03-05T05:08:44;0.73;;;0.30;;
21213;SDS011;10764;50.850;2.904;2023-03-05T05:11:12;0.80;;;0.30;;
21213;SDS011;10764;50.850;2.904;2023-03-05T05:13:40;0.57;;;0.20;;
21213;SDS011;10764;50.850;2.904;2023-03-05T05:16:06;1.00;;;0.40;;
21213;SDS011;10764;50.850;2.904;2023-03-05T05:18:33;0.90;;;0.35;;
21213;SDS011;10764;50.850;2.904;2023-03-05T05:21:00;0.63;;;0.35;;
21213;SDS011;10764;50.850;2.904;2023-03-05T05:23:27;0.40;;;0.20;;
21213;SDS011;10764;50.850;2.904;2023-03-05T05:25:55;0.63;;;0.30;;
21213;SDS011;10764;50.850;2.904;2023-03-05T05:28:26;0.77;;;0.30;;
21213;SDS011;10764;50.850;2.904;2023-03-05T05:30:53;1.23;;;0.40;;
21213;SDS011;10764;50.850;2.904;2023-03-05T05:33:20;0.68;;;0.20;;
21213;SDS011;10764;50.850;2.904;2023-03-05T05:35:48;1.03;;;0.40;;
21213;SDS011;10764;50.850;2.904;2023-03-05T05:38:15;0.65;;;0.40;;
21213;SDS011;10764;50.850;2.904;2023-03-05T05:40:42;0.73;;;0.30;;
21213;SDS011;10764;50.850;2.904;2023-03-05T05:43:09;1.42;;;0.38;;
21213;SDS011;10764;50.850;2.904;2023-03-05T05:45:36;0.47;;;0.20;;
21213;SDS011;10764;50.850;2.904;2023-03-05T05:48:04;0.65;;;0.25;;
21213;SDS011;10764;50.850;2.904;2023-03-05T05:50:31;1.10;;;0.30;;
21213;SDS011;10764;50.850;2.904;2023-03-05T05:52:58;0.65;;;0.30;;
21213;SDS011;10764;50.850;2.904;2023-03-05T05:55:25;1.17;;;0.20;;
21213;SDS011;10764;50.850;2.904;2023-03-05T05:57:52;0.88;;;0.30;;
21213;SDS011;10764;50.850;2.904;2023-03-05T06:00:19;0.73;;;0.30;;
21213;SDS011;10764;50.850;2.904;2023-03-05T06:02:46;0.50;;;0.20;;
21213;SDS011;10764;50.850;2.904;2023-03-05T06:05:13;0.70;;;0.30;;
21213;SDS011;10764;50.850;2.904;2023-03-05T06:07:40;0.60;;;0.30;;
21213;SDS011;10764;50.850;2.904;2023-03-05T06:10:08;1.07;;;0.40;;
21213;SDS011;10764;50.850;2.904;2023-03-05T06:12:35;1.05;;;0.25;;
21213;SDS011;10764;50.850;2.904;2023-03-05T06:15:02;0.50;;;0.20;;
21213;SDS011;10764;50.850;2.904;2023-03-05T06:17:30;1.08;;;0.30;;
21213;SDS011;10764;50.850;2.904;2023-03-05T06:19:57;2.65;;;0.30;;
21213;SDS011;10764;50.850;2.904;2023-03-05T06:22:24;0.85;;;0.28;;
21213;SDS011;10764;50.850;2.904;2023-03-05T06:24:51;0.90;;;0.30;;
21213;SDS011;10764;50.850;2.904;2023-03-05T06:27:18;0.60;;;0.20;;
21213;SDS011;10764;50.850;2.904;2023-03-05T06:29:44;0.90;;;0.30;;
21213;SDS011;10764;50.850;2.904;2023-03-05T06:32:11;0.95;;;0.30;;
21213;SDS011;10764;50.850;2.904;2023-03-05T06:34:38;1.20;;;0.35;;
21213;SDS011;10764;50.850;2.904;2023-03-05T06:37:05;0.55;;;0.30;;
21213;SDS011;10764;50.850;2.904;2023-03-05T06:39:32;0.68;;;0.20;;
21213;SDS011;10764;50.850;2.904;2023-03-05T06:41:59;0.93;;;0.30;;
21213;SDS011;10764;50.850;2.904;2023-03-05T06:44:26;0.80;;;0.30;;
21213;SDS011;10764;50.850;2.904;2023-03-05T06:46:53;0.55;;;0.30;;
21213;SDS011;10764;50.850;2.904;2023-03-05T06:49:20;0.50;;;0.30;;
21213;SDS011;10764;50.850;2.904;2023-03-05T06:51:47;1.30;;;0.40;;
21213;SDS011;10764;50.850;2.904;2023-03-05T06:54:14;0.30;;;0.25;;
21213;SDS011;10764;50.850;2.904;2023-03-05T06:56:43;1.48;;;0.30;;
21213;SDS011;10764;50.850;2.904;2023-03-05T06:59:12;0.70;;;0.20;;
21213;SDS011;10764;50.850;2.904;2023-03-05T07:01:41;0.47;;;0.30;;
21213;SDS011;10764;50.850;2.904;2023-03-05T07:04:10;0.43;;;0.20;;
21213;SDS011;10764;50.850;2.904;2023-03-05T07:06:38;0.50;;;0.20;;
21213;SDS011;10764;50.850;2.904;2023-03-05T07:09:07;0.70;;;0.30;;
21213;SDS011;10764;50.850;2.904;2023-03-05T07:11:36;1.52;;;0.30;;
21213;SDS011;10764;50.850;2.904;2023-03-05T07:14:03;0.80;;;0.40;;
21213;SDS011;10764;50.850;2.904;2023-03-05T07:16:30;0.50;;;0.30;;
21213;SDS011;10764;50.850;2.904;2023-03-05T07:18:59;0.73;;;0.30;;
21213;SDS011;10764;50.850;2.904;2023-03-05T07:21:29;0.55;;;0.30;;
21213;SDS011;10764;50.850;2.904;2023-03-05T07:23:58;0.32;;;0.20;;
21213;SDS011;10764;50.850;2.904;2023-03-05T07:26:26;1.30;;;0.30;;
21213;SDS011;10764;50.850;2.904;2023-03-05T07:28:53;0.47;;;0.25;;
21213;SDS011;10764;50.850;2.904;2023-03-05T07:31:21;1.48;;;0.30;;
21213;SDS011;10764;50.850;2.904;2023-03-05T07:33:56;0.35;;;0.20;;
21213;SDS011;10764;50.850;2.904;2023-03-05T07:36:25;0.60;;;0.30;;
21213;SDS011;10764;50.850;2.904;2023-03-05T07:38:52;2.23;;;0.40;;
21213;SDS011;10764;50.850;2.904;2023-03-05T07:41:19;1.40;;;0.50;;
21213;SDS011;10764;50.850;2.904;2023-03-05T07:43:49;0.80;;;0.30;;
21213;SDS011;10764;50.850;2.904;2023-03-05T07:46:19;0.70;;;0.20;;
21213;SDS011;10764;50.850;2.904;2023-03-05T07:48:47;0.73;;;0.30;;
21213;SDS011;10764;50.850;2.904;2023-03-05T07:51:15;1.15;;;0.40;;
21213;SDS011;10764;50.850;2.904;2023-03-05T07:53:43;0.65;;;0.20;;
21213;SDS011;10764;50.850;2.904;2023-03-05T07:56:11;2.03;;;0.30;;
21213;SDS011;10764;50.850;2.904;2023-03-05T07:58:39;0.80;;;0.30;;
21213;SDS011;10764;50.850;2.904;2023-03-05T08:01:12;2.40;;;0.50;;
21213;SDS011;10764;50.850;2.904;2023-03-05T08:03:41;0.50;;;0.30;;
21213;SDS011;10764;50.850;2.904;2023-03-05T08:06:09;1.40;;;0.38;;
21213;SDS011;10764;50.850;2.904;2023-03-05T08:08:37;0.93;;;0.30;;
21213;SDS011;10764;50.850;2.904;2023-03-05T08:11:05;5.57;;;0.50;;
21213;SDS011;10764;50.850;2.904;2023-03-05T08:13:35;1.85;;;0.30;;
21213;SDS011;10764;50.850;2.904;2023-03-05T08:16:07;4.40;;;0.40;;
21213;SDS011;10764;50.850;2.904;2023-03-05T08:18:37;4.03;;;0.40;;
21213;SDS011;10764;50.850;2.904;2023-03-05T08:21:05;4.00;;;0.70;;
21213;SDS011;10764;50.850;2.904;2023-03-05T08:23:39;2.60;;;0.47;;
21213;SDS011;10764;50.850;2.904;2023-03-05T08:26:14;2.45;;;0.40;;
21213;SDS011;10764;50.850;2.904;2023-03-05T08:28:42;1.58;;;0.40;;
21213;SDS011;10764;50.850;2.904;2023-03-05T08:31:10;1.55;;;0.40;;
21213;SDS011;10764;50.850;2.904;2023-03-05T08:33:38;1.25;;;0.40;;
21213;SDS011;10764;50.850;2.904;2023-03-05T08:36:06;4.97;;;0.63;;
21213;SDS011;10764;50.850;2.904;2023-03-05T08:38:34;3.85;;;0.55;;
21213;SDS011;10764;50.850;2.904;2023-03-05T08:41:02;2.55;;;0.40;;
21213;SDS011;10764;50.850;2.904;2023-03-05T08:43:29;3.27;;;0.30;;
21213;SDS011;10764;50.850;2.904;2023-03-05T08:45:56;4.40;;;0.45;;
21213;SDS011;10764;50.850;2.904;2023-03-05T08:48:24;2.40;;;0.40;;
21213;SDS011;10764;50.850;2.904;2023-03-05T08:50:51;1.92;;;0.40;;
21213;SDS011;10764;50.850;2.904;2023-03-05T08:53:18;1.90;;;0.40;;
21213;SDS011;10764;50.850;2.904;2023-03-05T08:55:54;3.72;;;0.47;;
21213;SDS011;10764;50.850;2.904;2023-03-05T08:58:23;2.78;;;0.52;;
21213;SDS011;10764;50.850;2.904;2023-03-05T09:00:50;2.20;;;0.50;;
21213;SDS011;10764;50.850;2.904;2023-03-05T09:03:17;2.60;;;0.45;;
21213;SDS011;10764;50.850;2.904;2023-03-05T09:05:44;1.88;;;0.50;;
21213;SDS011;10764;50.850;2.904;2023-03-05T09:08:12;5.23;;;0.60;;
21213;SDS011;10764;50.850;2.904;2023-03-05T09:10:42;1.98;;;0.43;;
21213;SDS011;10764;50.850;2.904;2023-03-05T09:13:10;2.10;;;0.50;;
21213;SDS011;10764;50.850;2.904;2023-03-05T09:15:37;2.20;;;0.40;;
21213;SDS011;10764;50.850;2.904;2023-03-05T09:18:04;1.77;;;0.50;;
21213;SDS011;10764;50.850;2.904;2023-03-05T09:20:34;1.60;;;0.38;;
21213;SDS011;10764;50.850;2.904;2023-03-05T09:23:02;2.10;;;0.45;;
21213;SDS011;10764;50.850;2.904;2023-03-05T09:25:29;2.60;;;0.40;;
21213;SDS011;10764;50.850;2.904;2023-03-05T09:27:55;1.17;;;0.47;;
21213;SDS011;10764;50.850;2.904;2023-03-05T09:30:22;1.93;;;0.40;;
21213;SDS011;10764;50.850;2.904;2023-03-05T09:32:49;1.05;;;0.40;;
21213;SDS011;10764;50.850;2.904;2023-03-05T09:35:16;1.53;;;0.57;;
21213;SDS011;10764;50.850;2.904;2023-03-05T09:37:43;1.30;;;0.50;;
21213;SDS011;10764;50.850;2.904;2023-03-05T09:40:12;1.17;;;0.53;;
21213;SDS011;10764;50.850;2.904;2023-03-05T09:42:53;1.42;;;0.55;;
21213;SDS011;10764;50.850;2.904;2023-03-05T09:45:46;2.00;;;0.60;;
21213;SDS011;10764;50.850;2.904;2023-03-05T09:48:39;1.35;;;0.65;;
21213;SDS011;10764;50.850;2.904;2023-03-05T09:51:22;0.90;;;0.60;;
21213;SDS011;10764;50.850;2.904;2023-03-05T09:53:59;5.05;;;0.73;;
21213;SDS011;10764;50.850;2.904;2023-03-05T09:56:35;1.10;;;0.80;;
21213;SDS011;10764;50.850;2.904;2023-03-05T10:01:41;1.70;;;0.80;;
21213;SDS011;10764;50.850;2.904;2023-03-05T10:06:49;1.37;;;0.70;;
21213;SDS011;10764;50.850;2.904;2023-03-05T10:12:09;3.00;;;0.80;;
21213;SDS011;10764;50.850;2.904;2023-03-05T10:14:43;3.22;;;0.75;;
21213;SDS011;10764;50.850;2.904;2023-03-05T10:22:31;2.28;;;0.90;;
21213;SDS011;10764;50.850;2.904;2023-03-05T10:39:17;3.20;;;0.90;;
21213;SDS011;10764;50.850;2.904;2023-03-05T10:42:10;3.92;;;1.00;;
21213;SDS011;10764;50.850;2.904;2023-03-05T10:44:59;2.75;;;1.00;;
21213;SDS011;10764;50.850;2.904;2023-03-05T10:47:42;1.92;;;0.88;;
21213;SDS011;10764;50.850;2.904;2023-03-05T10:50:28;2.35;;;1.08;;
21213;SDS011;10764;50.850;2.904;2023-03-05T10:53:13;2.38;;;0.90;;
21213;SDS011;10764;50.850;2.904;2023-03-05T10:55:43;2.83;;;0.98;;
21213;SDS011;10764;50.850;2.904;2023-03-05T10:58:11;3.05;;;1.30;;
21213;SDS011;10764;50.850;2.904;2023-03-05T11:00:40;2.80;;;0.80;;
21213;SDS011;10764;50.850;2.904;2023-03-05T11:14:37;3.77;;;1.10;;
21213;SDS011;10764;50.850;2.904;2023-03-05T11:17:23;3.47;;;1.00;;
21213;SDS011;10764;50.850;2.904;2023-03-05T11:23:13;2.70;;;0.90;;
21213;SDS011;10764;50.850;2.904;2023-03-05T11:28:38;2.63;;;1.10;;
21213;SDS011;10764;50.850;2.904;2023-03-05T11:31:21;3.28;;;1.02;;
21213;SDS011;10764;50.850;2.904;2023-03-05T11:36:30;2.40;;;1.25;;
21213;SDS011;10764;50.850;2.904;2023-03-05T11:41:33;5.38;;;1.80;;
21213;SDS011;10764;50.850;2.904;2023-03-05T11:44:08;6.18;;;1.90;;
21213;SDS011;10764;50.850;2.904;2023-03-05T11:46:43;6.13;;;2.10;;
21213;SDS011;10764;50.850;2.904;2023-03-05T11:49:14;5.75;;;1.98;;
21213;SDS011;10764;50.850;2.904;2023-03-05T11:51:51;8.18;;;2.60;;
21213;SDS011;10764;50.850;2.904;2023-03-05T11:57:23;9.60;;;2.80;;
21213;SDS011;10764;50.850;2.904;2023-03-05T11:59:52;9.00;;;3.10;;
21213;SDS011;10764;50.850;2.904;2023-03-05T12:02:22;9.15;;;3.20;;
21213;SDS011;10764;50.850;2.904;2023-03-05T12:04:51;11.45;;;2.97;;
21213;SDS011;10764;50.850;2.904;2023-03-05T12:07:20;12.25;;;3.40;;
21213;SDS011;10764;50.850;2.904;2023-03-05T12:09:54;10.98;;;3.28;;
21213;SDS011;10764;50.850;2.904;2023-03-05T12:12:42;12.90;;;3.50;;
21213;SDS011;10764;50.850;2.904;2023-03-05T12:20:47;13.30;;;4.03;;
21213;SDS011;10764;50.850;2.904;2023-03-05T12:23:23;14.20;;;3.85;;
21213;SDS011;10764;50.850;2.904;2023-03-05T12:25:54;14.25;;;4.30;;
21213;SDS011;10764;50.850;2.904;2023-03-05T12:30:58;12.52;;;3.97;;
21213;SDS011;10764;50.850;2.904;2023-03-05T12:33:40;14.18;;;4.25;;
21213;SDS011;10764;50.850;2.904;2023-03-05T12:38:51;13.52;;;3.95;;
21213;SDS011;10764;50.850;2.904;2023-03-05T12:46:31;15.90;;;4.63;;
21213;SDS011;10764;50.850;2.904;2023-03-05T12:51:53;13.05;;;4.05;;
21213;SDS011;10764;50.850;2.904;2023-03-05T12:54:32;10.48;;;3.83;;
21213;SDS011;10764;50.850;2.904;2023-03-05T12:57:02;11.93;;;4.25;;
21213;SDS011;10764;50.850;2.904;2023-03-05T12:59:43;12.90;;;4.47;;
21213;SDS011;10764;50.850;2.904;2023-03-05T13:05:06;13.00;;;3.95;;
21213;SDS011;10764;50.850;2.904;2023-03-05T13:07:47;15.40;;;4.10;;
21213;SDS011;10764;50.850;2.904;2023-03-05T13:10:28;12.48;;;3.95;;
21213;SDS011;10764;50.850;2.904;2023-03-05T13:12:55;14.27;;;4.82;;
21213;SDS011;10764;50.850;2.904;2023-03-05T13:15:24;15.30;;;4.90;;
21213;SDS011;10764;50.850;2.904;2023-03-05T13:17:58;16.67;;;5.32;;
21213;SDS011;10764;50.850;2.904;2023-03-05T13:20:36;14.52;;;4.60;;
21213;SDS011;10764;50.850;2.904;2023-03-05T13:23:23;13.75;;;4.97;;
21213;SDS011;10764;50.850;2.904;2023-03-05T13:28:44;16.02;;;5.07;;
21213;SDS011;10764;50.850;2.904;2023-03-05T13:31:41;13.95;;;5.20;;
21213;SDS011;10764;50.850;2.904;2023-03-05T13:37:33;14.45;;;5.07;;
21213;SDS011;10764;50.850;2.904;2023-03-05T13:39:53;14.57;;;5.05;;
21213;SDS011;10764;50.850;2.904;2023-03-05T13:44:55;13.50;;;5.07;;
21213;SDS011;10764;50.850;2.904;2023-03-05T13:47:28;14.63;;;5.10;;
21213;SDS011;10764;50.850;2.904;2023-03-05T13:49:59;13.85;;;5.10;;
21213;SDS011;10764;50.850;2.904;2023-03-05T13:52:28;13.68;;;4.90;;
21213;SDS011;10764;50.850;2.904;2023-03-05T13:54:57;15.13;;;5.38;;
21213;SDS011;10764;50.850;2.904;2023-03-05T13:57:38;13.20;;;4.72;;
21213;SDS011;10764;50.850;2.904;2023-03-05T14:00:24;13.30;;;4.70;;
21213;SDS011;10764;50.850;2.904;2023-03-05T14:02:55;12.77;;;4.63;;
21213;SDS011;10764;50.850;2.904;2023-03-05T14:05:25;14.00;;;4.90;;
21213;SDS011;10764;50.850;2.904;2023-03-05T14:07:53;12.25;;;4.65;;
21213;SDS011;10764;50.850;2.904;2023-03-05T14:10:37;12.05;;;4.85;;
21213;SDS011;10764;50.850;2.904;2023-03-05T14:13:05;12.45;;;4.82;;
21213;SDS011;10764;50.850;2.904;2023-03-05T14:15:38;12.20;;;4.68;;
21213;SDS011;10764;50.850;2.904;2023-03-05T14:20:39;10.45;;;4.30;;
21213;SDS011;10764;50.850;2.904;2023-03-05T14:34:18;11.02;;;4.30;;
21213;SDS011;10764;50.850;2.904;2023-03-05T14:36:48;11.27;;;4.85;;
21213;SDS011;10764;50.850;2.904;2023-03-05T14:39:26;10.52;;;4.38;;
21213;SDS011;10764;50.850;2.904;2023-03-05T14:44:52;12.00;;;4.32;;
21213;SDS011;10764;50.850;2.904;2023-03-05T14:47:24;11.37;;;4.67;;
21213;SDS011;10764;50.850;2.904;2023-03-05T14:49:52;13.60;;;5.00;;
21213;SDS011;10764;50.850;2.904;2023-03-05T14:52:19;10.97;;;4.80;;
21213;SDS011;10764;50.850;2.904;2023-03-05T14:54:48;9.75;;;4.45;;
21213;SDS011;10764;50.850;2.904;2023-03-05T14:57:17;9.57;;;4.35;;
21213;SDS011;10764;50.850;2.904;2023-03-05T14:59:46;10.43;;;4.60;;
21213;SDS011;10764;50.850;2.904;2023-03-05T15:02:20;11.00;;;4.47;;
21213;SDS011;10764;50.850;2.904;2023-03-05T15:04:48;10.77;;;5.07;;
21213;SDS011;10764;50.850;2.904;2023-03-05T15:07:16;12.18;;;4.70;;
21213;SDS011;10764;50.850;2.904;2023-03-05T15:09:44;9.85;;;4.35;;
21213;SDS011;10764;50.850;2.904;2023-03-05T15:12:12;11.10;;;4.68;;
21213;SDS011;10764;50.850;2.904;2023-03-05T15:14:40;8.90;;;4.63;;
21213;SDS011;10764;50.850;2.904;2023-03-05T15:17:10;9.52;;;4.35;;
21213;SDS011;10764;50.850;2.904;2023-03-05T15:19:42;10.15;;;4.50;;
21213;SDS011;10764;50.850;2.904;2023-03-05T15:22:12;9.13;;;4.22;;
21213;SDS011;10764;50.850;2.904;2023-03-05T15:24:39;10.13;;;4.22;;
21213;SDS011;10764;50.850;2.904;2023-03-05T15:27:07;7.45;;;4.30;;
21213;SDS011;10764;50.850;2.904;2023-03-05T15:29:34;10.18;;;4.45;;
21213;SDS011;10764;50.850;2.904;2023-03-05T15:32:01;8.15;;;3.80;;
21213;SDS011;10764;50.850;2.904;2023-03-05T15:34:28;9.55;;;4.03;;
21213;SDS011;10764;50.850;2.904;2023-03-05T15:36:56;7.57;;;3.80;;
21213;SDS011;10764;50.850;2.904;2023-03-05T15:39:22;8.02;;;4.10;;
21213;SDS011;10764;50.850;2.904;2023-03-05T15:41:52;7.72;;;3.80;;
21213;SDS011;10764;50.850;2.904;2023-03-05T15:44:19;8.25;;;3.83;;
21213;SDS011;10764;50.850;2.904;2023-03-05T15:46:47;8.77;;;3.83;;
21213;SDS011;10764;50.850;2.904;2023-03-05T15:49:14;8.52;;;3.78;;
21213;SDS011;10764;50.850;2.904;2023-03-05T15:51:41;8.63;;;3.75;;
21213;SDS011;10764;50.850;2.904;2023-03-05T15:54:08;8.77;;;3.90;;
21213;SDS011;10764;50.850;2.904;2023-03-05T15:56:35;9.13;;;3.67;;
21213;SDS011;10764;50.850;2.904;2023-03-05T15:59:02;8.73;;;3.90;;
21213;SDS011;10764;50.850;2.904;2023-03-05T16:01:29;8.43;;;3.85;;
21213;SDS011;10764;50.850;2.904;2023-03-05T16:03:56;7.75;;;3.90;;
21213;SDS011;10764;50.850;2.904;2023-03-05T16:06:22;8.48;;;3.80;;
21213;SDS011;10764;50.850;2.904;2023-03-05T16:08:52;7.28;;;3.78;;
21213;SDS011;10764;50.850;2.904;2023-03-05T16:11:24;7.68;;;3.47;;
21213;SDS011;10764;50.850;2.904;2023-03-05T16:13:51;7.63;;;3.70;;
21213;SDS011;10764;50.850;2.904;2023-03-05T16:16:19;7.27;;;3.50;;
21213;SDS011;10764;50.850;2.904;2023-03-05T16:18:48;6.53;;;3.70;;
21213;SDS011;10764;50.850;2.904;2023-03-05T16:21:16;7.53;;;3.40;;
21213;SDS011;10764;50.850;2.904;2023-03-05T16:23:43;8.32;;;3.55;;
21213;SDS011;10764;50.850;2.904;2023-03-05T16:26:10;7.28;;;3.40;;
21213;SDS011;10764;50.850;2.904;2023-03-05T16:28:37;7.47;;;3.70;;
21213;SDS011;10764;50.850;2.904;2023-03-05T16:31:04;6.68;;;3.40;;
21213;SDS011;10764;50.850;2.904;2023-03-05T16:33:31;6.50;;;3.13;;
21213;SDS011;10764;50.850;2.904;2023-03-05T16:36:15;6.75;;;3.40;;
21213;SDS011;10764;50.850;2.904;2023-03-05T16:38:48;5.83;;;3.00;;
21213;SDS011;10764;50.850;2.904;2023-03-05T16:41:16;7.47;;;3.35;;